KSWO/SWO METAR and TAF weather

Enter ICAO airport designator
Station Type Date Time Source
KSWO METAR 2021/07/28 03:53 UTC NOAA

KSWO 280353Z AUTO 15006KT 10SM CLR 28/22 A3003 RMK AO2 SLP153 T02830217


Station Type Date Time Source
KSWO Decoded METAR 2021/07/28 03:53 UTC NOAA

STILLWATER REGIONAL AIRPORT, OK, United States (KSWO) 36-10N 97-05W 290M
Jul 27, 2021 - 11:53 PM EDT / 2021.07.28 0353 UTC
Wind: from the SSE (150 degrees) at 7 MPH (6 KT):0
Visibility: 10 mile(s):0
Sky conditions: clear
Temperature: 82.9 F (28.3 C)
Dew Point: 71.1 F (21.7 C)
Relative Humidity: 67%
Pressure (altimeter): 30.03 in. Hg (1016 hPa)
ob: KSWO 280353Z AUTO 15006KT 10SM CLR 28/22 A3003 RMK AO2 SLP153 T02830217
cycle: 4

Station Type Date Time Source
KSWO TAF 2021/07/27 18:36 UTC NOAA

TAF KSWO 271734Z 2718/2818 14008KT P6SM SCT250

Example: see airport list